Tabor, Illinois
Current Conditions -  °F | °C
As of 10:55 PM on Sunday 21 Dec 2014 (Local Time) from KAAA Reporting Station
Overcast Overcast  
Wind Chill: 29°   Ceiling: 3500
Heat Index: 37°   Visibility: 10mi
Dew Point: 32°   Wind: 13mph
Humidity: 81%   Direction: 150°SSE
Pressure: 29.99"   Gusts: NA
Location:  40.252°N, 89.091°W
Report Text: KAAA 220455Z AUTO 15011KT 10SM OVC035 03/00 A2999 RMK AO2 T00290000
Loading
Personal Weather Stations






























Interactive Weather Map New forecast layout! Learn more

10-Day Weather Forecast

Advertisements
Track Severe Weather on mobile